sensor_id;sensor_type;location;lat;lon;timestamp;P1;P2;P0
62547;PMS7003;48602;45.192;5.722;2022-08-07T00:00:27;9.00;9.00;7.75
62547;PMS7003;48602;45.192;5.722;2022-08-07T00:02:53;10.25;9.50;9.00
62547;PMS7003;48602;45.192;5.722;2022-08-07T00:05:21;10.75;10.75;8.50
62547;PMS7003;48602;45.192;5.722;2022-08-07T00:07:47;9.00;8.00;7.00
62547;PMS7003;48602;45.192;5.722;2022-08-07T00:10:12;9.25;8.50;7.75
62547;PMS7003;48602;45.192;5.722;2022-08-07T00:12:38;9.25;9.25;8.75
62547;PMS7003;48602;45.192;5.722;2022-08-07T00:15:03;9.50;5.75;4.25
62547;PMS7003;48602;45.192;5.722;2022-08-07T00:17:29;10.75;10.00;9.00
62547;PMS7003;48602;45.192;5.722;2022-08-07T00:19:55;10.50;9.50;8.25
62547;PMS7003;48602;45.192;5.722;2022-08-07T00:22:20;10.00;10.00;9.00
62547;PMS7003;48602;45.192;5.722;2022-08-07T00:24:46;9.75;9.00;8.00
62547;PMS7003;48602;45.192;5.722;2022-08-07T00:27:11;9.50;9.50;8.25
62547;PMS7003;48602;45.192;5.722;2022-08-07T00:29:36;11.00;10.25;8.25
62547;PMS7003;48602;45.192;5.722;2022-08-07T00:32:02;14.25;12.50;11.00
62547;PMS7003;48602;45.192;5.722;2022-08-07T00:34:29;13.50;10.00;8.25
62547;PMS7003;48602;45.192;5.722;2022-08-07T00:36:54;7.75;7.75;7.25
62547;PMS7003;48602;45.192;5.722;2022-08-07T00:39:20;10.25;8.25;8.00
62547;PMS7003;48602;45.192;5.722;2022-08-07T00:41:52;10.00;9.00;8.25
62547;PMS7003;48602;45.192;5.722;2022-08-07T00:44:20;10.00;10.00;7.25
62547;PMS7003;48602;45.192;5.722;2022-08-07T00:46:46;9.25;8.75;7.00
62547;PMS7003;48602;45.192;5.722;2022-08-07T00:49:11;11.00;10.00;9.00
62547;PMS7003;48602;45.192;5.722;2022-08-07T00:51:37;9.50;9.00;7.25
62547;PMS7003;48602;45.192;5.722;2022-08-07T00:54:03;12.00;10.50;9.25
62547;PMS7003;48602;45.192;5.722;2022-08-07T00:56:28;8.25;8.00;7.00
62547;PMS7003;48602;45.192;5.722;2022-08-07T00:58:54;11.00;11.00;9.00
62547;PMS7003;48602;45.192;5.722;2022-08-07T01:01:20;11.50;11.50;9.75
62547;PMS7003;48602;45.192;5.722;2022-08-07T01:03:49;8.25;8.25;7.75
62547;PMS7003;48602;45.192;5.722;2022-08-07T01:06:15;10.00;8.75;8.00
62547;PMS7003;48602;45.192;5.722;2022-08-07T01:08:42;11.50;11.50;10.50
62547;PMS7003;48602;45.192;5.722;2022-08-07T01:11:07;9.00;9.00;8.00
62547;PMS7003;48602;45.192;5.722;2022-08-07T01:13:34;11.75;11.25;9.00
62547;PMS7003;48602;45.192;5.722;2022-08-07T01:16:00;8.50;8.50;8.00
62547;PMS7003;48602;45.192;5.722;2022-08-07T01:18:26;10.25;10.25;9.25
62547;PMS7003;48602;45.192;5.722;2022-08-07T01:21:00;9.00;9.00;8.00
62547;PMS7003;48602;45.192;5.722;2022-08-07T01:23:38;10.50;10.25;9.75
62547;PMS7003;48602;45.192;5.722;2022-08-07T01:26:05;9.50;9.50;7.75
62547;PMS7003;48602;45.192;5.722;2022-08-07T01:28:32;8.25;8.25;8.00
62547;PMS7003;48602;45.192;5.722;2022-08-07T01:30:58;9.00;8.75;7.75
62547;PMS7003;48602;45.192;5.722;2022-08-07T01:33:25;10.75;10.75;9.25
62547;PMS7003;48602;45.192;5.722;2022-08-07T01:35:50;9.75;9.75;8.00
62547;PMS7003;48602;45.192;5.722;2022-08-07T01:38:16;13.00;13.00;11.00
62547;PMS7003;48602;45.192;5.722;2022-08-07T01:40:42;9.00;7.00;5.75
62547;PMS7003;48602;45.192;5.722;2022-08-07T01:43:10;9.50;9.50;8.00
62547;PMS7003;48602;45.192;5.722;2022-08-07T01:45:35;9.75;9.75;9.00
62547;PMS7003;48602;45.192;5.722;2022-08-07T01:48:01;9.50;9.25;8.00
62547;PMS7003;48602;45.192;5.722;2022-08-07T01:50:28;8.50;8.50;7.75
62547;PMS7003;48602;45.192;5.722;2022-08-07T01:52:55;8.00;8.00;6.75
62547;PMS7003;48602;45.192;5.722;2022-08-07T01:55:24;9.00;7.25;7.00
62547;PMS7003;48602;45.192;5.722;2022-08-07T01:57:58;10.50;9.25;7.75
62547;PMS7003;48602;45.192;5.722;2022-08-07T02:00:27;9.25;9.25;8.00
62547;PMS7003;48602;45.192;5.722;2022-08-07T02:02:57;10.60;9.80;8.00
62547;PMS7003;48602;45.192;5.722;2022-08-07T02:05:30;12.00;10.00;8.50
62547;PMS7003;48602;45.192;5.722;2022-08-07T02:07:59;9.00;9.00;7.75
62547;PMS7003;48602;45.192;5.722;2022-08-07T02:10:30;12.00;9.75;8.00
62547;PMS7003;48602;45.192;5.722;2022-08-07T02:12:58;8.50;8.50;7.25
62547;PMS7003;48602;45.192;5.722;2022-08-07T02:15:25;11.00;9.25;8.50
62547;PMS7003;48602;45.192;5.722;2022-08-07T02:17:53;10.00;9.25;7.75
62547;PMS7003;48602;45.192;5.722;2022-08-07T02:20:20;9.75;9.75;9.00
62547;PMS7003;48602;45.192;5.722;2022-08-07T02:22:47;10.00;10.00;7.00
62547;PMS7003;48602;45.192;5.722;2022-08-07T02:25:14;10.75;10.75;9.50
62547;PMS7003;48602;45.192;5.722;2022-08-07T02:27:44;12.50;10.00;9.00
62547;PMS7003;48602;45.192;5.722;2022-08-07T02:30:11;8.50;8.50;7.50
62547;PMS7003;48602;45.192;5.722;2022-08-07T02:32:37;11.50;9.50;9.00
62547;PMS7003;48602;45.192;5.722;2022-08-07T02:35:03;9.50;9.50;8.25
62547;PMS7003;48602;45.192;5.722;2022-08-07T02:37:32;11.75;11.00;9.00
62547;PMS7003;48602;45.192;5.722;2022-08-07T02:40:00;10.75;9.00;8.00
62547;PMS7003;48602;45.192;5.722;2022-08-07T02:42:28;11.00;10.75;9.00
62547;PMS7003;48602;45.192;5.722;2022-08-07T02:44:55;12.25;10.25;9.00
62547;PMS7003;48602;45.192;5.722;2022-08-07T02:47:21;10.75;9.25;8.00
62547;PMS7003;48602;45.192;5.722;2022-08-07T02:49:47;11.50;10.75;9.00
62547;PMS7003;48602;45.192;5.722;2022-08-07T02:52:14;11.75;11.75;10.75
62547;PMS7003;48602;45.192;5.722;2022-08-07T02:54:45;9.75;9.50;8.25
62547;PMS7003;48602;45.192;5.722;2022-08-07T02:57:12;9.00;9.00;8.00
62547;PMS7003;48602;45.192;5.722;2022-08-07T02:59:40;11.25;11.00;9.50
62547;PMS7003;48602;45.192;5.722;2022-08-07T03:02:10;12.50;12.50;10.00
62547;PMS7003;48602;45.192;5.722;2022-08-07T03:04:38;12.25;11.00;9.75
62547;PMS7003;48602;45.192;5.722;2022-08-07T03:07:06;11.50;10.50;9.00
62547;PMS7003;48602;45.192;5.722;2022-08-07T03:09:33;12.75;11.50;8.50
62547;PMS7003;48602;45.192;5.722;2022-08-07T03:11:59;11.00;10.00;9.00
62547;PMS7003;48602;45.192;5.722;2022-08-07T03:14:29;11.50;11.50;9.25
62547;PMS7003;48602;45.192;5.722;2022-08-07T03:16:56;9.50;8.75;8.25
62547;PMS7003;48602;45.192;5.722;2022-08-07T03:19:23;9.50;9.00;8.75
62547;PMS7003;48602;45.192;5.722;2022-08-07T03:21:49;12.50;11.75;9.00
62547;PMS7003;48602;45.192;5.722;2022-08-07T03:24:16;12.75;10.25;9.00
62547;PMS7003;48602;45.192;5.722;2022-08-07T03:26:42;10.25;10.25;9.00
62547;PMS7003;48602;45.192;5.722;2022-08-07T03:29:09;8.75;8.75;7.50
62547;PMS7003;48602;45.192;5.722;2022-08-07T03:31:38;9.00;9.00;9.00
62547;PMS7003;48602;45.192;5.722;2022-08-07T03:34:06;13.25;13.00;10.00
62547;PMS7003;48602;45.192;5.722;2022-08-07T03:36:34;10.50;10.50;9.25
62547;PMS7003;48602;45.192;5.722;2022-08-07T03:39:04;12.00;10.25;9.00
62547;PMS7003;48602;45.192;5.722;2022-08-07T03:41:34;10.25;9.75;8.00
62547;PMS7003;48602;45.192;5.722;2022-08-07T03:44:01;10.50;10.00;9.75
62547;PMS7003;48602;45.192;5.722;2022-08-07T03:46:27;11.25;11.25;10.00
62547;PMS7003;48602;45.192;5.722;2022-08-07T03:48:54;9.75;9.75;8.25
62547;PMS7003;48602;45.192;5.722;2022-08-07T03:51:20;11.75;11.75;9.75
62547;PMS7003;48602;45.192;5.722;2022-08-07T03:53:47;12.00;12.00;10.00
62547;PMS7003;48602;45.192;5.722;2022-08-07T03:56:14;12.00;10.75;10.00
62547;PMS7003;48602;45.192;5.722;2022-08-07T03:58:45;12.25;11.25;9.00
62547;PMS7003;48602;45.192;5.722;2022-08-07T04:01:12;10.25;9.50;8.25
62547;PMS7003;48602;45.192;5.722;2022-08-07T04:03:39;12.00;12.00;10.00
62547;PMS7003;48602;45.192;5.722;2022-08-07T04:06:08;15.00;13.25;11.50
62547;PMS7003;48602;45.192;5.722;2022-08-07T04:08:35;14.00;13.75;12.00
62547;PMS7003;48602;45.192;5.722;2022-08-07T04:11:03;11.75;11.25;10.00
62547;PMS7003;48602;45.192;5.722;2022-08-07T04:13:30;13.75;12.75;10.75
62547;PMS7003;48602;45.192;5.722;2022-08-07T04:15:57;12.00;12.00;9.50
62547;PMS7003;48602;45.192;5.722;2022-08-07T04:18:22;12.75;11.75;10.25
62547;PMS7003;48602;45.192;5.722;2022-08-07T04:20:48;9.75;9.75;8.50
62547;PMS7003;48602;45.192;5.722;2022-08-07T04:23:13;11.25;11.25;10.00
62547;PMS7003;48602;45.192;5.722;2022-08-07T04:25:41;11.50;9.50;8.50
62547;PMS7003;48602;45.192;5.722;2022-08-07T04:28:07;12.25;12.00;10.75
62547;PMS7003;48602;45.192;5.722;2022-08-07T04:30:34;12.50;10.75;9.25
62547;PMS7003;48602;45.192;5.722;2022-08-07T04:33:04;9.50;8.25;8.00
62547;PMS7003;48602;45.192;5.722;2022-08-07T04:35:31;13.25;12.25;11.00
62547;PMS7003;48602;45.192;5.722;2022-08-07T04:37:56;10.75;10.75;9.00
62547;PMS7003;48602;45.192;5.722;2022-08-07T04:40:22;8.75;8.50;8.25
62547;PMS7003;48602;45.192;5.722;2022-08-07T04:42:47;11.75;11.75;10.00
62547;PMS7003;48602;45.192;5.722;2022-08-07T04:45:13;11.50;10.75;9.00
62547;PMS7003;48602;45.192;5.722;2022-08-07T04:48:26;10.25;10.25;9.25
62547;PMS7003;48602;45.192;5.722;2022-08-07T04:50:50;13.25;10.00;8.00
62547;PMS7003;48602;45.192;5.722;2022-08-07T04:56:00;14.25;12.75;10.50
62547;PMS7003;48602;45.192;5.722;2022-08-07T04:58:48;16.50;13.50;10.50
62547;PMS7003;48602;45.192;5.722;2022-08-07T05:04:00;13.00;12.25;10.00
62547;PMS7003;48602;45.192;5.722;2022-08-07T05:09:25;11.00;11.00;9.25
62547;PMS7003;48602;45.192;5.722;2022-08-07T05:11:55;11.25;10.25;9.50
62547;PMS7003;48602;45.192;5.722;2022-08-07T05:14:29;11.50;11.00;10.00
62547;PMS7003;48602;45.192;5.722;2022-08-07T05:16:59;10.75;10.75;9.00
62547;PMS7003;48602;45.192;5.722;2022-08-07T05:19:30;11.25;11.25;9.75
62547;PMS7003;48602;45.192;5.722;2022-08-07T05:22:01;15.25;13.25;10.00
62547;PMS7003;48602;45.192;5.722;2022-08-07T05:24:32;11.75;10.75;9.25
62547;PMS7003;48602;45.192;5.722;2022-08-07T05:27:00;11.25;11.25;9.50
62547;PMS7003;48602;45.192;5.722;2022-08-07T05:29:26;13.50;13.00;10.00
62547;PMS7003;48602;45.192;5.722;2022-08-07T05:31:54;12.00;10.00;9.50
62547;PMS7003;48602;45.192;5.722;2022-08-07T05:34:20;13.50;11.75;9.75
62547;PMS7003;48602;45.192;5.722;2022-08-07T05:36:52;13.00;10.75;9.00
62547;PMS7003;48602;45.192;5.722;2022-08-07T05:39:20;13.50;12.25;9.25
62547;PMS7003;48602;45.192;5.722;2022-08-07T05:41:46;14.00;12.00;11.00
62547;PMS7003;48602;45.192;5.722;2022-08-07T05:44:13;13.75;11.75;10.25
62547;PMS7003;48602;45.192;5.722;2022-08-07T05:46:42;11.50;11.50;9.25
62547;PMS7003;48602;45.192;5.722;2022-08-07T05:49:08;14.25;10.75;9.00
62547;PMS7003;48602;45.192;5.722;2022-08-07T05:51:35;15.00;14.00;12.00
62547;PMS7003;48602;45.192;5.722;2022-08-07T05:54:02;11.75;11.75;10.00
62547;PMS7003;48602;45.192;5.722;2022-08-07T05:56:27;13.00;11.50;9.75
62547;PMS7003;48602;45.192;5.722;2022-08-07T05:58:55;13.50;11.75;9.00
62547;PMS7003;48602;45.192;5.722;2022-08-07T06:01:23;13.50;13.00;11.00
62547;PMS7003;48602;45.192;5.722;2022-08-07T06:03:52;10.00;9.00;8.00
62547;PMS7003;48602;45.192;5.722;2022-08-07T06:06:19;13.00;12.00;10.50
62547;PMS7003;48602;45.192;5.722;2022-08-07T06:08:45;12.25;11.75;10.50
62547;PMS7003;48602;45.192;5.722;2022-08-07T06:11:11;16.00;13.25;10.75
62547;PMS7003;48602;45.192;5.722;2022-08-07T06:13:38;14.00;13.00;11.00
62547;PMS7003;48602;45.192;5.722;2022-08-07T06:16:05;13.00;13.00;11.75
62547;PMS7003;48602;45.192;5.722;2022-08-07T06:18:32;11.50;11.25;10.00
62547;PMS7003;48602;45.192;5.722;2022-08-07T06:21:01;16.00;13.50;11.25
62547;PMS7003;48602;45.192;5.722;2022-08-07T06:23:28;12.75;12.00;10.00
62547;PMS7003;48602;45.192;5.722;2022-08-07T06:25:54;11.75;11.75;9.00
62547;PMS7003;48602;45.192;5.722;2022-08-07T06:28:20;12.25;12.25;10.25
62547;PMS7003;48602;45.192;5.722;2022-08-07T06:30:46;15.50;14.75;12.50
62547;PMS7003;48602;45.192;5.722;2022-08-07T06:33:11;13.25;13.25;11.25
62547;PMS7003;48602;45.192;5.722;2022-08-07T06:35:37;14.50;14.50;12.00
62547;PMS7003;48602;45.192;5.722;2022-08-07T06:38:03;13.00;12.50;10.75
62547;PMS7003;48602;45.192;5.722;2022-08-07T06:40:29;12.00;12.00;10.75
62547;PMS7003;48602;45.192;5.722;2022-08-07T06:42:58;12.50;12.50;10.50
62547;PMS7003;48602;45.192;5.722;2022-08-07T06:45:27;13.75;13.00;11.00
62547;PMS7003;48602;45.192;5.722;2022-08-07T06:47:54;12.25;12.25;10.75
62547;PMS7003;48602;45.192;5.722;2022-08-07T06:50:19;12.75;12.75;11.25
62547;PMS7003;48602;45.192;5.722;2022-08-07T06:52:46;12.25;11.50;9.50
62547;PMS7003;48602;45.192;5.722;2022-08-07T06:55:18;14.00;12.25;10.50
62547;PMS7003;48602;45.192;5.722;2022-08-07T06:57:50;13.25;13.25;12.00
62547;PMS7003;48602;45.192;5.722;2022-08-07T07:00:17;15.00;13.00;10.25
62547;PMS7003;48602;45.192;5.722;2022-08-07T07:02:43;11.00;11.00;9.75
62547;PMS7003;48602;45.192;5.722;2022-08-07T07:05:10;14.00;14.00;11.25
62547;PMS7003;48602;45.192;5.722;2022-08-07T07:07:36;11.25;11.00;10.00
62547;PMS7003;48602;45.192;5.722;2022-08-07T07:10:02;13.50;11.75;10.75
62547;PMS7003;48602;45.192;5.722;2022-08-07T07:12:39;13.25;12.75;10.00
62547;PMS7003;48602;45.192;5.722;2022-08-07T07:15:15;12.00;12.00;9.25
62547;PMS7003;48602;45.192;5.722;2022-08-07T07:17:47;10.75;10.75;10.00
62547;PMS7003;48602;45.192;5.722;2022-08-07T07:20:22;14.75;13.25;10.00
62547;PMS7003;48602;45.192;5.722;2022-08-07T07:22:53;15.00;14.00;11.00
62547;PMS7003;48602;45.192;5.722;2022-08-07T07:25:20;12.00;12.00;10.75
62547;PMS7003;48602;45.192;5.722;2022-08-07T07:27:49;14.50;12.75;11.75
62547;PMS7003;48602;45.192;5.722;2022-08-07T07:30:31;13.75;13.25;11.75
62547;PMS7003;48602;45.192;5.722;2022-08-07T07:33:00;15.00;15.00;12.50
62547;PMS7003;48602;45.192;5.722;2022-08-07T07:35:27;9.50;9.00;8.00
62547;PMS7003;48602;45.192;5.722;2022-08-07T07:37:55;11.75;11.75;8.75
62547;PMS7003;48602;45.192;5.722;2022-08-07T07:40:24;14.50;13.25;11.25
62547;PMS7003;48602;45.192;5.722;2022-08-07T07:42:50;14.50;14.50;11.75
62547;PMS7003;48602;45.192;5.722;2022-08-07T07:45:19;12.50;12.50;11.25
62547;PMS7003;48602;45.192;5.722;2022-08-07T07:47:50;12.50;12.50;10.25
62547;PMS7003;48602;45.192;5.722;2022-08-07T07:50:17;12.75;12.75;10.75
62547;PMS7003;48602;45.192;5.722;2022-08-07T07:52:46;14.00;13.00;11.00
62547;PMS7003;48602;45.192;5.722;2022-08-07T07:55:13;15.00;13.25;11.75
62547;PMS7003;48602;45.192;5.722;2022-08-07T07:57:42;14.50;14.50;13.00
62547;PMS7003;48602;45.192;5.722;2022-08-07T08:00:10;13.50;13.50;11.00
62547;PMS7003;48602;45.192;5.722;2022-08-07T08:02:38;17.50;16.00;12.75
62547;PMS7003;48602;45.192;5.722;2022-08-07T08:05:07;15.00;12.50;11.25
62547;PMS7003;48602;45.192;5.722;2022-08-07T08:07:34;14.25;14.25;12.25
62547;PMS7003;48602;45.192;5.722;2022-08-07T08:10:02;15.50;14.50;11.25
62547;PMS7003;48602;45.192;5.722;2022-08-07T08:12:30;13.50;12.75;10.50
62547;PMS7003;48602;45.192;5.722;2022-08-07T08:14:57;11.50;11.50;9.75
62547;PMS7003;48602;45.192;5.722;2022-08-07T08:17:22;14.50;13.50;11.00
62547;PMS7003;48602;45.192;5.722;2022-08-07T08:19:50;13.50;13.00;11.25
62547;PMS7003;48602;45.192;5.722;2022-08-07T08:22:18;13.75;11.75;10.00
62547;PMS7003;48602;45.192;5.722;2022-08-07T08:25:04;14.25;13.25;10.75
62547;PMS7003;48602;45.192;5.722;2022-08-07T08:27:52;14.75;14.50;12.00
62547;PMS7003;48602;45.192;5.722;2022-08-07T08:30:18;15.00;14.00;11.50
62547;PMS7003;48602;45.192;5.722;2022-08-07T08:32:47;14.75;13.25;11.00
62547;PMS7003;48602;45.192;5.722;2022-08-07T08:35:18;9.25;8.50;7.00
62547;PMS7003;48602;45.192;5.722;2022-08-07T08:37:47;14.00;14.00;12.25
62547;PMS7003;48602;45.192;5.722;2022-08-07T08:41:00;12.20;12.20;10.60
62547;PMS7003;48602;45.192;5.722;2022-08-07T08:48:31;16.25;15.75;12.00
62547;PMS7003;48602;45.192;5.722;2022-08-07T08:56:39;19.50;17.75;14.75
62547;PMS7003;48602;45.192;5.722;2022-08-07T09:12:21;21.00;19.75;16.50
62547;PMS7003;48602;45.192;5.722;2022-08-07T09:17:52;17.25;16.00;13.50
62547;PMS7003;48602;45.192;5.722;2022-08-07T09:26:38;20.75;17.00;13.25
62547;PMS7003;48602;45.192;5.722;2022-08-07T09:29:12;15.00;14.50;13.00
62547;PMS7003;48602;45.192;5.722;2022-08-07T09:46:34;12.75;12.75;11.00
62547;PMS7003;48602;45.192;5.722;2022-08-07T09:53:56;16.00;16.00;13.50
62547;PMS7003;48602;45.192;5.722;2022-08-07T09:56:39;10.50;10.25;7.75
62547;PMS7003;48602;45.192;5.722;2022-08-07T09:59:40;15.25;13.50;12.50
62547;PMS7003;48602;45.192;5.722;2022-08-07T10:08:03;14.25;13.75;12.50
62547;PMS7003;48602;45.192;5.722;2022-08-07T10:27:25;23.75;22.00;18.25
62547;PMS7003;48602;45.192;5.722;2022-08-07T10:32:37;22.25;22.00;18.50
62547;PMS7003;48602;45.192;5.722;2022-08-07T10:35:14;25.25;24.00;19.50
62547;PMS7003;48602;45.192;5.722;2022-08-07T10:43:05;21.50;21.25;16.25
62547;PMS7003;48602;45.192;5.722;2022-08-07T10:45:37;21.75;20.25;16.50
62547;PMS7003;48602;45.192;5.722;2022-08-07T10:50:54;25.50;23.50;20.00
62547;PMS7003;48602;45.192;5.722;2022-08-07T10:58:50;23.50;20.50;17.25
62547;PMS7003;48602;45.192;5.722;2022-08-07T11:07:13;16.50;16.00;13.50
62547;PMS7003;48602;45.192;5.722;2022-08-07T11:09:43;20.50;20.00;18.25
62547;PMS7003;48602;45.192;5.722;2022-08-07T11:12:15;21.00;20.50;15.00
62547;PMS7003;48602;45.192;5.722;2022-08-07T11:14:53;16.75;16.75;14.75
62547;PMS7003;48602;45.192;5.722;2022-08-07T11:25:35;21.50;20.00;16.75
62547;PMS7003;48602;45.192;5.722;2022-08-07T11:28:22;22.00;22.00;17.50
62547;PMS7003;48602;45.192;5.722;2022-08-07T11:33:53;17.25;17.25;14.25
62547;PMS7003;48602;45.192;5.722;2022-08-07T11:41:32;20.25;18.50;15.75
62547;PMS7003;48602;45.192;5.722;2022-08-07T11:44:31;16.50;16.50;14.00
62547;PMS7003;48602;45.192;5.722;2022-08-07T11:47:08;16.50;15.75;13.75
62547;PMS7003;48602;45.192;5.722;2022-08-07T12:09:45;11.50;11.50;10.75
62547;PMS7003;48602;45.192;5.722;2022-08-07T12:12:24;10.75;10.75;9.50
62547;PMS7003;48602;45.192;5.722;2022-08-07T12:14:57;17.25;17.00;13.25
62547;PMS7003;48602;45.192;5.722;2022-08-07T12:17:29;12.75;12.75;11.00
62547;PMS7003;48602;45.192;5.722;2022-08-07T12:20:03;15.50;15.00;12.50
62547;PMS7003;48602;45.192;5.722;2022-08-07T12:25:33;12.50;12.50;10.50
62547;PMS7003;48602;45.192;5.722;2022-08-07T12:28:26;15.00;15.00;12.00
62547;PMS7003;48602;45.192;5.722;2022-08-07T12:31:00;16.75;16.75;14.75
62547;PMS7003;48602;45.192;5.722;2022-08-07T12:33:30;16.25;14.50;12.75
62547;PMS7003;48602;45.192;5.722;2022-08-07T12:35:56;15.25;14.25;12.25
62547;PMS7003;48602;45.192;5.722;2022-08-07T12:38:23;13.50;13.50;11.00
62547;PMS7003;48602;45.192;5.722;2022-08-07T12:40:52;15.75;14.00;12.00
62547;PMS7003;48602;45.192;5.722;2022-08-07T12:43:22;14.25;13.75;10.75
62547;PMS7003;48602;45.192;5.722;2022-08-07T12:51:31;13.75;12.00;9.50
62547;PMS7003;48602;45.192;5.722;2022-08-07T12:54:05;11.75;11.00;9.00
62547;PMS7003;48602;45.192;5.722;2022-08-07T12:56:43;12.00;12.00;10.25
62547;PMS7003;48602;45.192;5.722;2022-08-07T12:59:10;18.00;16.25;13.00
62547;PMS7003;48602;45.192;5.722;2022-08-07T13:17:55;13.75;13.25;11.00
62547;PMS7003;48602;45.192;5.722;2022-08-07T13:20:50;9.25;9.25;8.00
62547;PMS7003;48602;45.192;5.722;2022-08-07T13:26:10;16.00;15.25;14.50
62547;PMS7003;48602;45.192;5.722;2022-08-07T13:28:44;13.75;13.50;11.50
62547;PMS7003;48602;45.192;5.722;2022-08-07T13:31:21;14.00;13.75;11.50
62547;PMS7003;48602;45.192;5.722;2022-08-07T13:36:39;9.00;9.00;8.75
62547;PMS7003;48602;45.192;5.722;2022-08-07T13:41:48;10.50;10.00;8.25
62547;PMS7003;48602;45.192;5.722;2022-08-07T13:44:17;7.25;7.25;5.25
62547;PMS7003;48602;45.192;5.722;2022-08-07T13:46:46;13.00;13.00;11.25
62547;PMS7003;48602;45.192;5.722;2022-08-07T13:49:18;13.25;9.25;8.50
62547;PMS7003;48602;45.192;5.722;2022-08-07T13:51:45;13.00;12.00;10.75
62547;PMS7003;48602;45.192;5.722;2022-08-07T13:54:13;16.75;16.00;13.50
62547;PMS7003;48602;45.192;5.722;2022-08-07T13:56:40;11.75;11.75;10.75
62547;PMS7003;48602;45.192;5.722;2022-08-07T13:59:14;12.50;12.00;10.00
62547;PMS7003;48602;45.192;5.722;2022-08-07T14:01:55;12.00;12.00;10.50
62547;PMS7003;48602;45.192;5.722;2022-08-07T14:04:32;12.00;11.00;8.75
62547;PMS7003;48602;45.192;5.722;2022-08-07T14:07:08;11.25;10.25;9.75
62547;PMS7003;48602;45.192;5.722;2022-08-07T14:09:36;13.25;13.25;12.00
62547;PMS7003;48602;45.192;5.722;2022-08-07T14:12:04;11.50;10.75;9.25
62547;PMS7003;48602;45.192;5.722;2022-08-07T14:14:42;14.75;13.00;11.00
62547;PMS7003;48602;45.192;5.722;2022-08-07T14:17:12;7.50;7.50;7.25
62547;PMS7003;48602;45.192;5.722;2022-08-07T14:22:24;8.25;8.25;7.75
62547;PMS7003;48602;45.192;5.722;2022-08-07T14:24:56;9.00;9.00;8.25
62547;PMS7003;48602;45.192;5.722;2022-08-07T14:27:27;12.50;11.75;9.75
62547;PMS7003;48602;45.192;5.722;2022-08-07T14:30:00;13.50;12.00;9.75
62547;PMS7003;48602;45.192;5.722;2022-08-07T14:33:16;18.50;17.75;15.75
62547;PMS7003;48602;45.192;5.722;2022-08-07T14:35:27;28.67;25.67;21.00
62547;PMS7003;48602;45.192;5.722;2022-08-07T14:37:54;32.67;30.33;24.00
62547;PMS7003;48602;45.192;5.722;2022-08-07T14:40:22;26.33;24.33;20.33
62547;PMS7003;48602;45.192;5.722;2022-08-07T14:42:53;25.00;25.00;20.00
62547;PMS7003;48602;45.192;5.722;2022-08-07T14:45:26;24.67;24.67;20.00
62547;PMS7003;48602;45.192;5.722;2022-08-07T14:47:56;24.00;24.00;20.33
62547;PMS7003;48602;45.192;5.722;2022-08-07T14:50:25;26.33;26.33;21.00
62547;PMS7003;48602;45.192;5.722;2022-08-07T14:52:53;26.33;25.33;20.67
62547;PMS7003;48602;45.192;5.722;2022-08-07T14:55:21;16.50;13.50;11.00
62547;PMS7003;48602;45.192;5.722;2022-08-07T14:57:51;13.00;13.00;10.50
62547;PMS7003;48602;45.192;5.722;2022-08-07T15:00:21;10.00;10.00;9.50
62547;PMS7003;48602;45.192;5.722;2022-08-07T15:02:52;21.00;21.00;17.00
62547;PMS7003;48602;45.192;5.722;2022-08-07T15:05:20;15.50;15.50;14.25
62547;PMS7003;48602;45.192;5.722;2022-08-07T15:07:48;17.50;16.50;15.00
62547;PMS7003;48602;45.192;5.722;2022-08-07T15:10:16;22.33;21.67;18.67
62547;PMS7003;48602;45.192;5.722;2022-08-07T15:12:45;19.33;19.33;17.33
62547;PMS7003;48602;45.192;5.722;2022-08-07T15:15:15;26.00;25.00;21.00
62547;PMS7003;48602;45.192;5.722;2022-08-07T15:17:52;15.25;14.75;12.25
62547;PMS7003;48602;45.192;5.722;2022-08-07T15:20:24;19.00;19.00;16.25
62547;PMS7003;48602;45.192;5.722;2022-08-07T15:23:08;11.50;11.50;8.00
62547;PMS7003;48602;45.192;5.722;2022-08-07T15:25:37;21.00;21.00;18.33
62547;PMS7003;48602;45.192;5.722;2022-08-07T15:28:05;21.67;21.33;19.33
62547;PMS7003;48602;45.192;5.722;2022-08-07T15:30:32;14.67;14.00;12.00
62547;PMS7003;48602;45.192;5.722;2022-08-07T15:33:00;14.50;13.25;11.50
62547;PMS7003;48602;45.192;5.722;2022-08-07T15:35:28;17.00;17.00;14.25
62547;PMS7003;48602;45.192;5.722;2022-08-07T15:37:57;17.25;16.75;14.00
62547;PMS7003;48602;45.192;5.722;2022-08-07T15:40:24;16.50;15.25;13.00
62547;PMS7003;48602;45.192;5.722;2022-08-07T15:42:56;21.00;21.00;18.67
62547;PMS7003;48602;45.192;5.722;2022-08-07T15:45:49;19.00;19.00;18.33
62547;PMS7003;48602;45.192;5.722;2022-08-07T15:48:19;25.00;23.67;19.33
62547;PMS7003;48602;45.192;5.722;2022-08-07T15:50:58;14.00;13.00;12.00
62547;PMS7003;48602;45.192;5.722;2022-08-07T15:53:41;16.50;16.50;15.75
62547;PMS7003;48602;45.192;5.722;2022-08-07T15:56:09;8.50;7.25;6.25
62547;PMS7003;48602;45.192;5.722;2022-08-07T15:58:55;12.00;12.00;11.25
62547;PMS7003;48602;45.192;5.722;2022-08-07T16:01:24;13.25;13.25;11.00
62547;PMS7003;48602;45.192;5.722;2022-08-07T16:03:55;11.00;10.25;9.00
62547;PMS7003;48602;45.192;5.722;2022-08-07T16:08:59;17.25;16.75;14.00
62547;PMS7003;48602;45.192;5.722;2022-08-07T16:20:00;18.33;18.00;16.33
62547;PMS7003;48602;45.192;5.722;2022-08-07T16:28:31;14.50;14.50;14.25
62547;PMS7003;48602;45.192;5.722;2022-08-07T16:30:55;27.67;26.33;21.67
62547;PMS7003;48602;45.192;5.722;2022-08-07T16:33:34;12.00;12.00;10.50
62547;PMS7003;48602;45.192;5.722;2022-08-07T16:38:51;16.00;14.00;12.67
62547;PMS7003;48602;45.192;5.722;2022-08-07T16:50:37;12.00;12.00;10.50
62547;PMS7003;48602;45.192;5.722;2022-08-07T16:53:24;8.50;8.50;7.00
62547;PMS7003;48602;45.192;5.722;2022-08-07T16:59:01;13.75;13.75;11.00
62547;PMS7003;48602;45.192;5.722;2022-08-07T17:04:32;13.00;13.00;12.00
62547;PMS7003;48602;45.192;5.722;2022-08-07T17:07:15;12.75;12.75;10.75
62547;PMS7003;48602;45.192;5.722;2022-08-07T17:12:40;12.00;12.00;10.50
62547;PMS7003;48602;45.192;5.722;2022-08-07T17:20:31;13.00;11.75;10.00
62547;PMS7003;48602;45.192;5.722;2022-08-07T17:23:15;10.50;10.50;8.50
62547;PMS7003;48602;45.192;5.722;2022-08-07T17:31:52;12.00;11.75;11.50
62547;PMS7003;48602;45.192;5.722;2022-08-07T17:34:38;12.00;11.50;9.50
62547;PMS7003;48602;45.192;5.722;2022-08-07T17:37:10;14.75;11.25;10.25
62547;PMS7003;48602;45.192;5.722;2022-08-07T17:39:51;11.25;11.00;10.00
62547;PMS7003;48602;45.192;5.722;2022-08-07T17:45:22;9.00;9.00;8.75
62547;PMS7003;48602;45.192;5.722;2022-08-07T17:48:00;8.75;8.75;7.25
62547;PMS7003;48602;45.192;5.722;2022-08-07T17:53:35;11.75;11.75;11.00
62547;PMS7003;48602;45.192;5.722;2022-08-07T18:05:37;10.25;10.25;8.25
62547;PMS7003;48602;45.192;5.722;2022-08-07T18:10:53;11.25;10.75;9.00
62547;PMS7003;48602;45.192;5.722;2022-08-07T18:13:48;8.50;8.50;7.50
62547;PMS7003;48602;45.192;5.722;2022-08-07T18:18:51;10.50;10.00;9.00
62547;PMS7003;48602;45.192;5.722;2022-08-07T18:24:02;12.00;10.50;9.75